Aviation Digital Data Service (ADDS)

Output produced by METARs form (1249 UTC 21 February 2018)
found at http://www.aviationweather.gov/adds/metars/
 
KLAS 201509Z 2015/2118 34008KT P6SM SKC 
     FM202000 07007KT P6SM FEW120 
     FM210300 19006KT P6SM BKN250
       
KLAX 201123Z 2012/2118 34008KT P6SM SKC 
     FM201300 04004KT P6SM SKC 
     FM202000 26012KT P6SM SKC 
     FM210300 29006KT P6SM SKC 
     FM210800 VRB03KT P6SM SKC
       
TAF AMD KLFI 201500Z 2015/2116 21006KT 3200 BR OVC002 QNH3040INS 
     BECMG 2015/2016 21009KT 9999 NSW OVC007 QNH3041INS 
     BECMG 2020/2021 20006KT 9999 BKN015 QNH3041INS 
     BECMG 2105/2106 19006KT 0400 FG BKN003 QNH3040INS TX21/2018Z TN12/2015Z
       
KLGA 201226Z 2012/2118 23010KT 2SM BR OVC005 WS020/23035KT 
     TEMPO 2013/2014 1SM BR OVC003 
     FM201400 23011KT 3SM BR BKN006 
     FM201600 23011KT P6SM SCT006 BKN015 
     FM201800 22011KT P6SM SCT015 SCT025 BKN250 
     FM202100 19012G17KT P6SM FEW015 SCT025 BKN250 
     FM210000 20008KT P6SM SCT015 BKN250 
     FM210300 21007KT 3SM BR BKN007 
     FM210500 20006KT 1/2SM FG BKN004 
     FM211300 21009KT 2SM BR SCT005 BKN015 
     FM211500 22011KT P6SM SCT015 SCT040
       
TAF AMD KLRF 211232Z 2112/2213 35009KT 4800 RA BR SCT005 510203 QNH3025INS 
     TEMPO 2112/2115 BKN005 
     BECMG 2114/2115 02012G20KT 4800 -RA OVC004 510403 QNH3025INS 
     BECMG 2209/2210 04009KT 9999 NSW OVC004 QNH3032INS TX10/2112Z TN07/2207Z
       
TAF AMD KLSF 201256Z 2012/2115 VRB06KT 3200 BR BKN010 QNH3027INS 
     TEMPO 2012/2015 4800 BR 
     BECMG 2015/2016 13006KT 9999 NSW BKN020 QNH3021INS 
     BECMG 2105/2106 14006KT 9999 BKN010 QNH3030INS 
     BECMG 2108/2109 18006KT 6000 BR BKN005 QNH3031INS TX23/2020Z TN09/2012Z
       
TAF KLSV 2015/2121 27009KT 9999 FEW200 QNH2997INS 
     TEMPO 2015/2018 30012G18KT 
     BECMG 2017/2018 30012G18KT 9999 FEW200 QNH3010INS 
     BECMG 2107/2108 VRB06KT 9999 BKN150 QNH3012INS 
     BECMG 2116/2117 04009KT 9999 BKN150 QNH3013ISN TX08/2023Z TNM01/2015Z
       
TAF AMD KLTS 211220Z 2112/2215 02015G25KT 9999 FEW050 BKN070 QNH3030INS 
     TEMPO 2115/2118 8000 -FZRA OVC020 690002 660205 
     BECMG 2117/2118 02012G20KT 8000 -PL OVC020 660205 QNH3035INS 
     TEMPO 2118/2121 6000 -FZRA OVC015 690002 
     BECMG 2120/2121 01012G20KT 4800 PL BKN010 OVC020 660105 QNH3033INS 
     TEMPO 2121/2124 6000 -FZRA OVC009 690001 
     BECMG 2123/2124 36009KT 6000 -PL OVC007 660075 QNH3033INS 
     TEMPO 2200/2206 4800 -FZRA OVC008 690001 
     BECMG 2211/2212 VRB06KT 9999 NSW OVC009 660095 QNH3031INS TXM02/2112Z TNM05/2112Z
       
TAF KLUF 201203Z 2012/2118 VRB06KT 9999 FEW080 QNH2997INS 
     BECMG 2014/2015 VRB06KT 9999 SKC QNH3002INS TX14/2023Z TN00/2112Z